sensor_id;sensor_type;location;lat;lon;timestamp;P1;durP1;ratioP1;P2;durP2;ratioP2
33266;SDS011;19638;49.080;11.896;2023-01-31T00:00:05;15.60;;;5.77;;
33266;SDS011;19638;49.080;11.896;2023-01-31T00:04:10;19.33;;;6.00;;
33266;SDS011;19638;49.080;11.896;2023-01-31T00:08:13;12.57;;;5.57;;
33266;SDS011;19638;49.080;11.896;2023-01-31T00:12:20;16.77;;;5.73;;
33266;SDS011;19638;49.080;11.896;2023-01-31T00:16:23;14.07;;;4.97;;
33266;SDS011;19638;49.080;11.896;2023-01-31T00:20:30;17.63;;;5.00;;
33266;SDS011;19638;49.080;11.896;2023-01-31T00:24:33;20.83;;;5.80;;
33266;SDS011;19638;49.080;11.896;2023-01-31T00:28:42;11.03;;;4.73;;
33266;SDS011;19638;49.080;11.896;2023-01-31T00:32:49;15.43;;;4.07;;
33266;SDS011;19638;49.080;11.896;2023-01-31T00:36:52;8.37;;;4.10;;
33266;SDS011;19638;49.080;11.896;2023-01-31T00:40:56;20.00;;;6.00;;
33266;SDS011;19638;49.080;11.896;2023-01-31T00:45:08;16.73;;;4.40;;
33266;SDS011;19638;49.080;11.896;2023-01-31T00:49:12;16.70;;;5.33;;
33266;SDS011;19638;49.080;11.896;2023-01-31T00:53:18;13.10;;;5.30;;
33266;SDS011;19638;49.080;11.896;2023-01-31T00:57:24;11.53;;;5.70;;
33266;SDS011;19638;49.080;11.896;2023-01-31T01:01:28;14.87;;;6.07;;
33266;SDS011;19638;49.080;11.896;2023-01-31T01:05:31;11.43;;;6.00;;
33266;SDS011;19638;49.080;11.896;2023-01-31T01:09:37;18.47;;;5.80;;
33266;SDS011;19638;49.080;11.896;2023-01-31T01:13:41;13.37;;;5.30;;
33266;SDS011;19638;49.080;11.896;2023-01-31T01:17:48;19.50;;;6.33;;
33266;SDS011;19638;49.080;11.896;2023-01-31T01:21:54;8.70;;;4.07;;
33266;SDS011;19638;49.080;11.896;2023-01-31T01:25:58;7.27;;;4.07;;
33266;SDS011;19638;49.080;11.896;2023-01-31T01:30:02;15.23;;;5.17;;
33266;SDS011;19638;49.080;11.896;2023-01-31T01:34:10;12.00;;;4.43;;
33266;SDS011;19638;49.080;11.896;2023-01-31T01:38:15;8.80;;;4.37;;
33266;SDS011;19638;49.080;11.896;2023-01-31T01:42:22;21.40;;;6.47;;
33266;SDS011;19638;49.080;11.896;2023-01-31T01:46:27;10.87;;;5.60;;
33266;SDS011;19638;49.080;11.896;2023-01-31T01:50:35;18.53;;;5.30;;
33266;SDS011;19638;49.080;11.896;2023-01-31T01:54:46;14.43;;;5.13;;
33266;SDS011;19638;49.080;11.896;2023-01-31T01:58:53;16.93;;;5.60;;
33266;SDS011;19638;49.080;11.896;2023-01-31T02:03:03;10.90;;;4.97;;
33266;SDS011;19638;49.080;11.896;2023-01-31T02:07:12;11.83;;;4.70;;
33266;SDS011;19638;49.080;11.896;2023-01-31T02:11:17;8.63;;;5.07;;
33266;SDS011;19638;49.080;11.896;2023-01-31T02:15:27;13.13;;;5.00;;
33266;SDS011;19638;49.080;11.896;2023-01-31T02:19:34;7.70;;;4.47;;
33266;SDS011;19638;49.080;11.896;2023-01-31T02:33:21;18.17;;;4.80;;
33266;SDS011;19638;49.080;11.896;2023-01-31T02:37:28;13.67;;;5.03;;
33266;SDS011;19638;49.080;11.896;2023-01-31T02:41:40;9.97;;;4.67;;
33266;SDS011;19638;49.080;11.896;2023-01-31T02:45:51;12.17;;;4.80;;
33266;SDS011;19638;49.080;11.896;2023-01-31T02:50:03;13.93;;;5.80;;
33266;SDS011;19638;49.080;11.896;2023-01-31T02:54:16;12.33;;;4.57;;
33266;SDS011;19638;49.080;11.896;2023-01-31T02:58:52;10.47;;;4.93;;
33266;SDS011;19638;49.080;11.896;2023-01-31T03:03:01;17.13;;;5.53;;
33266;SDS011;19638;49.080;11.896;2023-01-31T03:07:09;12.37;;;4.57;;
33266;SDS011;19638;49.080;11.896;2023-01-31T03:11:18;13.70;;;4.90;;
33266;SDS011;19638;49.080;11.896;2023-01-31T03:15:35;14.07;;;4.90;;
33266;SDS011;19638;49.080;11.896;2023-01-31T03:20:06;9.07;;;4.83;;
33266;SDS011;19638;49.080;11.896;2023-01-31T03:24:15;9.17;;;4.00;;
33266;SDS011;19638;49.080;11.896;2023-01-31T03:28:24;14.97;;;5.50;;
33266;SDS011;19638;49.080;11.896;2023-01-31T03:32:38;11.13;;;4.73;;
33266;SDS011;19638;49.080;11.896;2023-01-31T03:36:50;10.07;;;5.40;;
33266;SDS011;19638;49.080;11.896;2023-01-31T03:41:01;11.87;;;5.43;;
33266;SDS011;19638;49.080;11.896;2023-01-31T03:45:10;16.43;;;6.13;;
33266;SDS011;19638;49.080;11.896;2023-01-31T03:49:17;15.40;;;5.20;;
33266;SDS011;19638;49.080;11.896;2023-01-31T03:53:26;15.60;;;5.20;;
33266;SDS011;19638;49.080;11.896;2023-01-31T03:57:40;15.10;;;4.77;;
33266;SDS011;19638;49.080;11.896;2023-01-31T04:01:45;14.13;;;5.30;;
33266;SDS011;19638;49.080;11.896;2023-01-31T04:05:51;16.70;;;5.57;;
33266;SDS011;19638;49.080;11.896;2023-01-31T04:09:57;10.87;;;5.83;;
33266;SDS011;19638;49.080;11.896;2023-01-31T04:14:02;19.87;;;4.93;;
33266;SDS011;19638;49.080;11.896;2023-01-31T04:18:05;14.10;;;5.10;;
33266;SDS011;19638;49.080;11.896;2023-01-31T04:22:08;14.30;;;5.10;;
33266;SDS011;19638;49.080;11.896;2023-01-31T04:26:17;15.33;;;5.47;;
33266;SDS011;19638;49.080;11.896;2023-01-31T04:30:30;10.40;;;3.87;;
33266;SDS011;19638;49.080;11.896;2023-01-31T04:34:41;12.87;;;4.57;;
33266;SDS011;19638;49.080;11.896;2023-01-31T04:38:45;12.37;;;5.13;;
33266;SDS011;19638;49.080;11.896;2023-01-31T04:42:48;21.63;;;5.43;;
33266;SDS011;19638;49.080;11.896;2023-01-31T04:46:56;18.43;;;5.97;;
33266;SDS011;19638;49.080;11.896;2023-01-31T04:51:01;11.67;;;4.83;;
33266;SDS011;19638;49.080;11.896;2023-01-31T04:55:05;14.47;;;5.77;;
33266;SDS011;19638;49.080;11.896;2023-01-31T04:59:14;15.60;;;5.67;;
33266;SDS011;19638;49.080;11.896;2023-01-31T05:03:21;12.17;;;5.30;;
33266;SDS011;19638;49.080;11.896;2023-01-31T05:07:29;10.87;;;4.40;;
33266;SDS011;19638;49.080;11.896;2023-01-31T05:11:33;9.60;;;4.40;;
33266;SDS011;19638;49.080;11.896;2023-01-31T05:15:36;13.40;;;5.37;;
33266;SDS011;19638;49.080;11.896;2023-01-31T05:19:42;15.37;;;5.63;;
33266;SDS011;19638;49.080;11.896;2023-01-31T05:23:49;6.10;;;3.50;;
33266;SDS011;19638;49.080;11.896;2023-01-31T05:27:55;18.23;;;5.33;;
33266;SDS011;19638;49.080;11.896;2023-01-31T05:31:59;10.37;;;4.97;;
33266;SDS011;19638;49.080;11.896;2023-01-31T05:36:06;10.47;;;4.23;;
33266;SDS011;19638;49.080;11.896;2023-01-31T05:40:10;13.00;;;5.73;;
33266;SDS011;19638;49.080;11.896;2023-01-31T05:44:14;13.17;;;5.20;;
33266;SDS011;19638;49.080;11.896;2023-01-31T05:48:17;14.33;;;5.33;;
33266;SDS011;19638;49.080;11.896;2023-01-31T05:52:22;17.07;;;5.23;;
33266;SDS011;19638;49.080;11.896;2023-01-31T05:56:25;14.77;;;5.63;;
33266;SDS011;19638;49.080;11.896;2023-01-31T06:00:33;18.50;;;5.33;;
33266;SDS011;19638;49.080;11.896;2023-01-31T06:04:37;13.70;;;5.47;;
33266;SDS011;19638;49.080;11.896;2023-01-31T06:08:44;22.57;;;5.33;;
33266;SDS011;19638;49.080;11.896;2023-01-31T06:12:47;16.50;;;5.63;;
33266;SDS011;19638;49.080;11.896;2023-01-31T06:16:53;19.50;;;6.50;;
33266;SDS011;19638;49.080;11.896;2023-01-31T06:20:58;12.63;;;5.13;;
33266;SDS011;19638;49.080;11.896;2023-01-31T06:25:03;8.97;;;4.87;;
33266;SDS011;19638;49.080;11.896;2023-01-31T06:29:07;10.87;;;5.93;;
33266;SDS011;19638;49.080;11.896;2023-01-31T06:33:12;14.57;;;6.40;;
33266;SDS011;19638;49.080;11.896;2023-01-31T06:37:18;14.17;;;5.60;;
33266;SDS011;19638;49.080;11.896;2023-01-31T06:41:26;19.63;;;6.07;;
33266;SDS011;19638;49.080;11.896;2023-01-31T06:45:29;15.07;;;5.53;;
33266;SDS011;19638;49.080;11.896;2023-01-31T06:49:34;18.93;;;5.97;;
33266;SDS011;19638;49.080;11.896;2023-01-31T06:53:39;18.77;;;5.90;;
33266;SDS011;19638;49.080;11.896;2023-01-31T06:57:47;11.90;;;4.93;;
33266;SDS011;19638;49.080;11.896;2023-01-31T07:01:53;17.43;;;6.03;;
33266;SDS011;19638;49.080;11.896;2023-01-31T07:05:57;16.00;;;5.70;;
33266;SDS011;19638;49.080;11.896;2023-01-31T07:10:02;22.30;;;6.30;;
33266;SDS011;19638;49.080;11.896;2023-01-31T07:14:07;17.77;;;5.97;;
33266;SDS011;19638;49.080;11.896;2023-01-31T07:18:10;14.40;;;5.40;;
33266;SDS011;19638;49.080;11.896;2023-01-31T07:22:13;14.93;;;6.63;;
33266;SDS011;19638;49.080;11.896;2023-01-31T07:26:20;19.67;;;5.93;;
33266;SDS011;19638;49.080;11.896;2023-01-31T07:30:24;17.60;;;5.93;;
33266;SDS011;19638;49.080;11.896;2023-01-31T07:34:28;15.67;;;4.80;;
33266;SDS011;19638;49.080;11.896;2023-01-31T07:38:31;16.87;;;5.23;;
33266;SDS011;19638;49.080;11.896;2023-01-31T07:42:36;18.13;;;5.77;;
33266;SDS011;19638;49.080;11.896;2023-01-31T07:46:40;19.30;;;5.77;;
33266;SDS011;19638;49.080;11.896;2023-01-31T07:50:52;16.70;;;5.73;;
33266;SDS011;19638;49.080;11.896;2023-01-31T07:55:01;16.73;;;5.50;;
33266;SDS011;19638;49.080;11.896;2023-01-31T07:59:04;14.67;;;5.30;;
33266;SDS011;19638;49.080;11.896;2023-01-31T08:03:18;16.43;;;5.60;;
33266;SDS011;19638;49.080;11.896;2023-01-31T08:07:34;15.33;;;5.10;;
33266;SDS011;19638;49.080;11.896;2023-01-31T08:11:38;13.50;;;5.07;;
33266;SDS011;19638;49.080;11.896;2023-01-31T08:15:41;23.20;;;6.03;;
33266;SDS011;19638;49.080;11.896;2023-01-31T08:19:45;15.73;;;5.33;;
33266;SDS011;19638;49.080;11.896;2023-01-31T08:23:53;13.60;;;5.37;;
33266;SDS011;19638;49.080;11.896;2023-01-31T08:28:01;16.87;;;5.70;;
33266;SDS011;19638;49.080;11.896;2023-01-31T08:32:13;19.70;;;5.93;;
33266;SDS011;19638;49.080;11.896;2023-01-31T08:36:19;17.13;;;5.03;;
33266;SDS011;19638;49.080;11.896;2023-01-31T08:40:25;10.93;;;4.57;;
33266;SDS011;19638;49.080;11.896;2023-01-31T08:44:33;20.53;;;5.37;;
33266;SDS011;19638;49.080;11.896;2023-01-31T08:48:38;14.90;;;4.30;;
33266;SDS011;19638;49.080;11.896;2023-01-31T08:52:46;15.77;;;4.77;;
33266;SDS011;19638;49.080;11.896;2023-01-31T08:56:54;20.27;;;4.87;;
33266;SDS011;19638;49.080;11.896;2023-01-31T09:00:59;14.50;;;4.70;;
33266;SDS011;19638;49.080;11.896;2023-01-31T09:05:06;19.87;;;4.63;;
33266;SDS011;19638;49.080;11.896;2023-01-31T09:09:12;18.43;;;4.53;;
33266;SDS011;19638;49.080;11.896;2023-01-31T09:13:15;10.27;;;3.73;;
33266;SDS011;19638;49.080;11.896;2023-01-31T09:17:24;12.43;;;3.60;;
33266;SDS011;19638;49.080;11.896;2023-01-31T09:21:30;18.07;;;4.53;;
33266;SDS011;19638;49.080;11.896;2023-01-31T09:25:38;15.53;;;4.33;;
33266;SDS011;19638;49.080;11.896;2023-01-31T09:29:47;12.47;;;4.30;;
33266;SDS011;19638;49.080;11.896;2023-01-31T09:33:50;7.40;;;4.30;;
33266;SDS011;19638;49.080;11.896;2023-01-31T09:37:57;15.97;;;4.50;;
33266;SDS011;19638;49.080;11.896;2023-01-31T09:42:02;16.83;;;4.70;;
33266;SDS011;19638;49.080;11.896;2023-01-31T09:46:20;15.30;;;4.90;;
33266;SDS011;19638;49.080;11.896;2023-01-31T09:50:30;12.27;;;3.80;;
33266;SDS011;19638;49.080;11.896;2023-01-31T09:54:37;16.87;;;4.73;;
33266;SDS011;19638;49.080;11.896;2023-01-31T09:58:48;17.97;;;4.77;;
33266;SDS011;19638;49.080;11.896;2023-01-31T10:03:04;10.37;;;4.30;;
33266;SDS011;19638;49.080;11.896;2023-01-31T10:07:22;9.27;;;3.67;;
33266;SDS011;19638;49.080;11.896;2023-01-31T10:11:32;10.30;;;4.40;;
33266;SDS011;19638;49.080;11.896;2023-01-31T10:15:41;14.70;;;4.63;;
33266;SDS011;19638;49.080;11.896;2023-01-31T10:19:46;16.13;;;4.13;;
33266;SDS011;19638;49.080;11.896;2023-01-31T10:23:55;16.93;;;4.00;;
33266;SDS011;19638;49.080;11.896;2023-01-31T10:28:02;14.27;;;5.43;;
33266;SDS011;19638;49.080;11.896;2023-01-31T10:32:13;16.83;;;4.60;;
33266;SDS011;19638;49.080;11.896;2023-01-31T10:36:23;15.73;;;4.60;;
33266;SDS011;19638;49.080;11.896;2023-01-31T10:40:34;16.80;;;4.23;;
33266;SDS011;19638;49.080;11.896;2023-01-31T10:44:43;12.17;;;3.90;;
33266;SDS011;19638;49.080;11.896;2023-01-31T10:48:57;9.70;;;4.40;;
33266;SDS011;19638;49.080;11.896;2023-01-31T10:53:07;12.43;;;3.90;;
33266;SDS011;19638;49.080;11.896;2023-01-31T10:57:22;16.33;;;5.00;;
33266;SDS011;19638;49.080;11.896;2023-01-31T11:01:32;9.60;;;3.93;;
33266;SDS011;19638;49.080;11.896;2023-01-31T11:05:43;14.20;;;4.43;;
33266;SDS011;19638;49.080;11.896;2023-01-31T11:09:50;7.83;;;3.97;;
33266;SDS011;19638;49.080;11.896;2023-01-31T11:13:56;10.33;;;4.00;;
33266;SDS011;19638;49.080;11.896;2023-01-31T11:18:01;8.57;;;3.60;;
33266;SDS011;19638;49.080;11.896;2023-01-31T11:22:14;10.80;;;3.50;;
33266;SDS011;19638;49.080;11.896;2023-01-31T11:26:27;12.60;;;4.60;;
33266;SDS011;19638;49.080;11.896;2023-01-31T11:30:34;10.50;;;3.87;;
33266;SDS011;19638;49.080;11.896;2023-01-31T11:34:40;19.67;;;5.60;;
33266;SDS011;19638;49.080;11.896;2023-01-31T11:39:01;16.30;;;5.30;;
33266;SDS011;19638;49.080;11.896;2023-01-31T11:43:29;10.87;;;3.90;;
33266;SDS011;19638;49.080;11.896;2023-01-31T11:47:41;14.90;;;5.83;;
33266;SDS011;19638;49.080;11.896;2023-01-31T11:51:47;14.07;;;4.20;;
33266;SDS011;19638;49.080;11.896;2023-01-31T11:55:53;14.50;;;4.03;;
33266;SDS011;19638;49.080;11.896;2023-01-31T11:59:59;11.63;;;3.53;;
33266;SDS011;19638;49.080;11.896;2023-01-31T12:04:04;10.90;;;4.27;;
33266;SDS011;19638;49.080;11.896;2023-01-31T12:08:27;8.77;;;3.27;;
33266;SDS011;19638;49.080;11.896;2023-01-31T12:12:34;9.60;;;3.07;;
33266;SDS011;19638;49.080;11.896;2023-01-31T12:16:38;11.03;;;3.20;;
33266;SDS011;19638;49.080;11.896;2023-01-31T12:20:42;12.70;;;3.20;;
33266;SDS011;19638;49.080;11.896;2023-01-31T12:24:55;7.30;;;3.30;;
33266;SDS011;19638;49.080;11.896;2023-01-31T12:29:15;8.63;;;3.63;;
33266;SDS011;19638;49.080;11.896;2023-01-31T12:33:33;10.00;;;3.03;;
33266;SDS011;19638;49.080;11.896;2023-01-31T12:37:48;14.77;;;3.27;;
33266;SDS011;19638;49.080;11.896;2023-01-31T12:42:03;7.30;;;3.00;;
33266;SDS011;19638;49.080;11.896;2023-01-31T12:46:28;6.83;;;2.73;;
33266;SDS011;19638;49.080;11.896;2023-01-31T12:50:40;10.67;;;2.97;;
33266;SDS011;19638;49.080;11.896;2023-01-31T12:54:56;9.70;;;3.10;;
33266;SDS011;19638;49.080;11.896;2023-01-31T12:59:14;9.50;;;3.23;;
33266;SDS011;19638;49.080;11.896;2023-01-31T13:03:32;9.60;;;3.33;;
33266;SDS011;19638;49.080;11.896;2023-01-31T13:07:51;14.47;;;3.57;;
33266;SDS011;19638;49.080;11.896;2023-01-31T13:12:05;16.40;;;4.13;;
33266;SDS011;19638;49.080;11.896;2023-01-31T13:16:15;12.93;;;3.17;;
33266;SDS011;19638;49.080;11.896;2023-01-31T13:20:27;9.43;;;3.47;;
33266;SDS011;19638;49.080;11.896;2023-01-31T13:24:36;12.60;;;3.97;;
33266;SDS011;19638;49.080;11.896;2023-01-31T13:28:45;9.10;;;3.10;;
33266;SDS011;19638;49.080;11.896;2023-01-31T13:32:54;10.87;;;3.53;;
33266;SDS011;19638;49.080;11.896;2023-01-31T13:37:03;12.37;;;3.33;;
33266;SDS011;19638;49.080;11.896;2023-01-31T13:41:16;17.77;;;5.27;;
33266;SDS011;19638;49.080;11.896;2023-01-31T13:45:25;14.90;;;6.80;;
33266;SDS011;19638;49.080;11.896;2023-01-31T13:49:46;16.90;;;6.07;;
33266;SDS011;19638;49.080;11.896;2023-01-31T13:53:54;7.40;;;3.20;;
33266;SDS011;19638;49.080;11.896;2023-01-31T13:58:04;16.83;;;3.83;;
33266;SDS011;19638;49.080;11.896;2023-01-31T14:02:15;20.37;;;4.70;;
33266;SDS011;19638;49.080;11.896;2023-01-31T14:06:24;13.47;;;6.33;;
33266;SDS011;19638;49.080;11.896;2023-01-31T14:11:00;9.17;;;3.90;;
33266;SDS011;19638;49.080;11.896;2023-01-31T14:15:19;12.33;;;4.43;;
33266;SDS011;19638;49.080;11.896;2023-01-31T14:20:02;16.83;;;3.60;;
33266;SDS011;19638;49.080;11.896;2023-01-31T14:24:17;9.23;;;4.77;;
33266;SDS011;19638;49.080;11.896;2023-01-31T14:28:41;9.60;;;3.93;;
33266;SDS011;19638;49.080;11.896;2023-01-31T14:33:06;10.47;;;4.43;;
33266;SDS011;19638;49.080;11.896;2023-01-31T14:37:31;15.17;;;4.13;;
33266;SDS011;19638;49.080;11.896;2023-01-31T14:46:29;8.97;;;3.40;;
33266;SDS011;19638;49.080;11.896;2023-01-31T14:59:52;10.90;;;3.40;;
33266;SDS011;19638;49.080;11.896;2023-01-31T15:03:58;11.33;;;3.43;;
33266;SDS011;19638;49.080;11.896;2023-01-31T15:12:56;7.83;;;3.57;;
33266;SDS011;19638;49.080;11.896;2023-01-31T15:17:02;7.90;;;3.37;;
33266;SDS011;19638;49.080;11.896;2023-01-31T15:21:29;11.60;;;3.70;;
33266;SDS011;19638;49.080;11.896;2023-01-31T15:25:39;11.30;;;3.60;;
33266;SDS011;19638;49.080;11.896;2023-01-31T15:29:53;10.70;;;3.53;;
33266;SDS011;19638;49.080;11.896;2023-01-31T15:34:06;11.47;;;3.73;;
33266;SDS011;19638;49.080;11.896;2023-01-31T15:38:22;7.30;;;3.17;;
33266;SDS011;19638;49.080;11.896;2023-01-31T15:42:32;10.87;;;3.53;;
33266;SDS011;19638;49.080;11.896;2023-01-31T15:46:40;7.73;;;3.67;;
33266;SDS011;19638;49.080;11.896;2023-01-31T15:50:48;13.17;;;4.03;;
33266;SDS011;19638;49.080;11.896;2023-01-31T15:54:53;11.33;;;3.67;;
33266;SDS011;19638;49.080;11.896;2023-01-31T15:59:03;6.70;;;3.30;;
33266;SDS011;19638;49.080;11.896;2023-01-31T16:03:19;13.63;;;4.03;;
33266;SDS011;19638;49.080;11.896;2023-01-31T16:07:24;14.23;;;5.10;;
33266;SDS011;19638;49.080;11.896;2023-01-31T16:11:32;13.70;;;4.60;;
33266;SDS011;19638;49.080;11.896;2023-01-31T16:15:37;9.20;;;3.30;;
33266;SDS011;19638;49.080;11.896;2023-01-31T16:19:47;6.90;;;3.33;;
33266;SDS011;19638;49.080;11.896;2023-01-31T16:24:01;8.67;;;3.47;;
33266;SDS011;19638;49.080;11.896;2023-01-31T16:28:05;9.80;;;3.33;;
33266;SDS011;19638;49.080;11.896;2023-01-31T16:32:15;16.70;;;3.40;;
33266;SDS011;19638;49.080;11.896;2023-01-31T16:36:23;10.50;;;2.90;;
33266;SDS011;19638;49.080;11.896;2023-01-31T16:40:32;11.13;;;4.13;;
33266;SDS011;19638;49.080;11.896;2023-01-31T16:44:39;9.20;;;2.83;;
33266;SDS011;19638;49.080;11.896;2023-01-31T16:48:59;7.07;;;2.87;;
33266;SDS011;19638;49.080;11.896;2023-01-31T16:53:07;6.43;;;2.90;;
33266;SDS011;19638;49.080;11.896;2023-01-31T16:57:22;9.63;;;3.47;;
33266;SDS011;19638;49.080;11.896;2023-01-31T17:01:39;10.17;;;3.33;;
33266;SDS011;19638;49.080;11.896;2023-01-31T17:05:42;5.63;;;2.53;;
33266;SDS011;19638;49.080;11.896;2023-01-31T17:09:52;10.07;;;3.70;;
33266;SDS011;19638;49.080;11.896;2023-01-31T17:13:57;6.90;;;2.53;;
33266;SDS011;19638;49.080;11.896;2023-01-31T17:18:01;8.70;;;3.53;;
33266;SDS011;19638;49.080;11.896;2023-01-31T17:22:04;8.43;;;3.20;;
33266;SDS011;19638;49.080;11.896;2023-01-31T17:26:11;11.80;;;3.43;;
33266;SDS011;19638;49.080;11.896;2023-01-31T17:30:18;13.60;;;3.70;;
33266;SDS011;19638;49.080;11.896;2023-01-31T17:34:23;15.40;;;4.47;;
33266;SDS011;19638;49.080;11.896;2023-01-31T17:38:31;11.63;;;4.00;;
33266;SDS011;19638;49.080;11.896;2023-01-31T17:42:38;13.23;;;3.60;;
33266;SDS011;19638;49.080;11.896;2023-01-31T17:46:41;9.23;;;3.43;;
33266;SDS011;19638;49.080;11.896;2023-01-31T17:50:45;13.57;;;4.50;;
33266;SDS011;19638;49.080;11.896;2023-01-31T17:54:48;19.63;;;6.63;;
33266;SDS011;19638;49.080;11.896;2023-01-31T17:58:56;6.80;;;4.30;;
33266;SDS011;19638;49.080;11.896;2023-01-31T18:02:59;12.13;;;4.70;;
33266;SDS011;19638;49.080;11.896;2023-01-31T18:07:03;9.67;;;4.63;;
33266;SDS011;19638;49.080;11.896;2023-01-31T18:11:09;9.67;;;4.53;;
33266;SDS011;19638;49.080;11.896;2023-01-31T18:15:15;11.53;;;4.50;;
33266;SDS011;19638;49.080;11.896;2023-01-31T18:19:21;15.23;;;4.20;;
33266;SDS011;19638;49.080;11.896;2023-01-31T18:23:24;10.00;;;4.70;;
33266;SDS011;19638;49.080;11.896;2023-01-31T18:27:29;15.07;;;4.57;;
33266;SDS011;19638;49.080;11.896;2023-01-31T18:31:36;14.47;;;5.00;;
33266;SDS011;19638;49.080;11.896;2023-01-31T18:35:44;11.20;;;4.50;;
33266;SDS011;19638;49.080;11.896;2023-01-31T18:39:59;12.13;;;4.90;;
33266;SDS011;19638;49.080;11.896;2023-01-31T18:44:04;9.47;;;4.70;;
33266;SDS011;19638;49.080;11.896;2023-01-31T18:48:09;8.63;;;4.60;;
33266;SDS011;19638;49.080;11.896;2023-01-31T18:52:12;8.53;;;4.83;;
33266;SDS011;19638;49.080;11.896;2023-01-31T18:56:17;8.40;;;4.20;;
33266;SDS011;19638;49.080;11.896;2023-01-31T19:00:26;7.33;;;4.33;;
33266;SDS011;19638;49.080;11.896;2023-01-31T19:04:35;13.23;;;4.97;;
33266;SDS011;19638;49.080;11.896;2023-01-31T19:08:39;9.87;;;4.90;;
33266;SDS011;19638;49.080;11.896;2023-01-31T19:12:43;10.93;;;5.33;;
33266;SDS011;19638;49.080;11.896;2023-01-31T19:16:48;10.07;;;5.23;;
33266;SDS011;19638;49.080;11.896;2023-01-31T19:20:58;11.00;;;5.20;;
33266;SDS011;19638;49.080;11.896;2023-01-31T19:25:04;48.20;;;25.87;;
33266;SDS011;19638;49.080;11.896;2023-01-31T19:29:11;17.83;;;9.67;;
33266;SDS011;19638;49.080;11.896;2023-01-31T19:33:16;54.70;;;20.27;;
33266;SDS011;19638;49.080;11.896;2023-01-31T19:37:23;22.13;;;9.90;;
33266;SDS011;19638;49.080;11.896;2023-01-31T19:41:29;14.33;;;8.17;;
33266;SDS011;19638;49.080;11.896;2023-01-31T19:45:36;12.97;;;7.63;;
33266;SDS011;19638;49.080;11.896;2023-01-31T19:49:39;36.57;;;18.80;;
33266;SDS011;19638;49.080;11.896;2023-01-31T19:53:44;128.57;;;50.80;;
33266;SDS011;19638;49.080;11.896;2023-01-31T19:57:48;106.03;;;38.70;;
33266;SDS011;19638;49.080;11.896;2023-01-31T20:01:51;25.37;;;16.23;;
33266;SDS011;19638;49.080;11.896;2023-01-31T20:05:59;22.40;;;15.07;;
33266;SDS011;19638;49.080;11.896;2023-01-31T20:10:08;9.33;;;5.50;;
33266;SDS011;19638;49.080;11.896;2023-01-31T20:14:14;8.30;;;6.30;;
33266;SDS011;19638;49.080;11.896;2023-01-31T20:18:17;9.13;;;7.30;;
33266;SDS011;19638;49.080;11.896;2023-01-31T20:22:20;12.87;;;8.20;;
33266;SDS011;19638;49.080;11.896;2023-01-31T20:26:26;11.93;;;5.53;;
33266;SDS011;19638;49.080;11.896;2023-01-31T20:30:30;8.63;;;5.47;;
33266;SDS011;19638;49.080;11.896;2023-01-31T20:34:34;12.43;;;5.03;;
33266;SDS011;19638;49.080;11.896;2023-01-31T20:38:43;10.40;;;5.63;;
33266;SDS011;19638;49.080;11.896;2023-01-31T20:42:49;10.93;;;4.60;;
33266;SDS011;19638;49.080;11.896;2023-01-31T20:46:52;9.43;;;4.83;;
33266;SDS011;19638;49.080;11.896;2023-01-31T20:50:57;12.77;;;5.20;;
33266;SDS011;19638;49.080;11.896;2023-01-31T20:55:06;7.47;;;4.77;;
33266;SDS011;19638;49.080;11.896;2023-01-31T20:59:11;14.57;;;5.50;;
33266;SDS011;19638;49.080;11.896;2023-01-31T21:03:17;9.47;;;5.47;;
33266;SDS011;19638;49.080;11.896;2023-01-31T21:07:22;7.87;;;4.47;;
33266;SDS011;19638;49.080;11.896;2023-01-31T21:11:28;12.57;;;5.90;;
33266;SDS011;19638;49.080;11.896;2023-01-31T21:15:33;8.13;;;5.00;;
33266;SDS011;19638;49.080;11.896;2023-01-31T21:19:39;59.13;;;23.57;;
33266;SDS011;19638;49.080;11.896;2023-01-31T21:23:43;10.20;;;5.40;;
33266;SDS011;19638;49.080;11.896;2023-01-31T21:27:47;14.00;;;5.53;;
33266;SDS011;19638;49.080;11.896;2023-01-31T21:31:52;12.37;;;5.13;;
33266;SDS011;19638;49.080;11.896;2023-01-31T21:35:57;9.43;;;5.30;;
33266;SDS011;19638;49.080;11.896;2023-01-31T21:40:10;7.23;;;4.70;;
33266;SDS011;19638;49.080;11.896;2023-01-31T21:44:17;10.43;;;4.80;;
33266;SDS011;19638;49.080;11.896;2023-01-31T21:48:21;8.20;;;4.10;;
33266;SDS011;19638;49.080;11.896;2023-01-31T21:52:32;7.13;;;4.03;;
33266;SDS011;19638;49.080;11.896;2023-01-31T21:56:35;9.83;;;4.50;;
33266;SDS011;19638;49.080;11.896;2023-01-31T22:00:39;8.53;;;4.37;;
33266;SDS011;19638;49.080;11.896;2023-01-31T22:04:48;6.23;;;4.43;;
33266;SDS011;19638;49.080;11.896;2023-01-31T22:08:54;7.23;;;4.50;;
33266;SDS011;19638;49.080;11.896;2023-01-31T22:12:59;10.17;;;4.80;;
33266;SDS011;19638;49.080;11.896;2023-01-31T22:17:02;9.13;;;4.50;;
33266;SDS011;19638;49.080;11.896;2023-01-31T22:21:07;9.03;;;4.87;;
33266;SDS011;19638;49.080;11.896;2023-01-31T22:25:12;9.20;;;4.13;;
33266;SDS011;19638;49.080;11.896;2023-01-31T22:29:16;9.83;;;4.23;;
33266;SDS011;19638;49.080;11.896;2023-01-31T22:33:19;7.37;;;5.10;;
33266;SDS011;19638;49.080;11.896;2023-01-31T22:37:29;10.57;;;4.20;;
33266;SDS011;19638;49.080;11.896;2023-01-31T22:41:35;8.27;;;4.43;;
33266;SDS011;19638;49.080;11.896;2023-01-31T22:45:41;7.43;;;4.60;;
33266;SDS011;19638;49.080;11.896;2023-01-31T22:49:46;11.87;;;4.70;;
33266;SDS011;19638;49.080;11.896;2023-01-31T22:53:55;8.17;;;3.87;;
33266;SDS011;19638;49.080;11.896;2023-01-31T22:58:00;8.27;;;4.90;;
33266;SDS011;19638;49.080;11.896;2023-01-31T23:02:05;6.63;;;4.53;;
33266;SDS011;19638;49.080;11.896;2023-01-31T23:06:09;10.43;;;5.60;;
33266;SDS011;19638;49.080;11.896;2023-01-31T23:10:17;10.07;;;5.13;;
33266;SDS011;19638;49.080;11.896;2023-01-31T23:14:22;6.00;;;4.20;;
33266;SDS011;19638;49.080;11.896;2023-01-31T23:18:25;7.73;;;3.70;;
33266;SDS011;19638;49.080;11.896;2023-01-31T23:22:33;6.33;;;4.27;;
33266;SDS011;19638;49.080;11.896;2023-01-31T23:26:41;5.40;;;4.07;;
33266;SDS011;19638;49.080;11.896;2023-01-31T23:30:46;9.77;;;5.07;;
33266;SDS011;19638;49.080;11.896;2023-01-31T23:34:50;7.87;;;4.33;;
33266;SDS011;19638;49.080;11.896;2023-01-31T23:38:53;6.13;;;4.80;;
33266;SDS011;19638;49.080;11.896;2023-01-31T23:43:01;8.50;;;4.63;;
33266;SDS011;19638;49.080;11.896;2023-01-31T23:47:05;6.40;;;4.40;;
33266;SDS011;19638;49.080;11.896;2023-01-31T23:51:09;7.53;;;4.00;;
33266;SDS011;19638;49.080;11.896;2023-01-31T23:55:17;8.80;;;4.83;;
33266;SDS011;19638;49.080;11.896;2023-01-31T23:59:24;8.07;;;4.60;;
